Time;durP1;ratioP1;P1;durP2;ratioP2;P2;SDS_P1;SDS_P2;PMS_P1;PMS_P2;Temp;Humidity;BMP_temperature;BMP_pressure;BME280_temperature;BME280_humidity;BME280_pressure;Samples;Min_cycle;Max_cycle;Signal;HPM_P1;HPM_P2
2022/12/09 00:01:19;;;;;;;13.90;9.25;;;1.80;99.90;;;;;;4896934;29;20044;-83
2022/12/09 00:03:45;;;;;;;13.38;8.95;;;1.80;99.90;;;;;;4893510;29;20070;-84
2022/12/09 00:06:14;;;;;;;13.85;9.80;;;1.80;99.90;;;;;;4898323;29;20061;-83
2022/12/09 00:08:39;;;;;;;13.88;9.30;;;1.80;99.90;;;;;;4889758;29;20044;-83
2022/12/09 00:11:06;;;;;;;15.50;9.70;;;1.80;99.90;;;;;;4896083;29;20041;-83
2022/12/09 00:13:31;;;;;;;12.60;8.55;;;1.80;99.90;;;;;;4897786;29;20389;-83
2022/12/09 00:15:57;;;;;;;14.68;9.52;;;1.80;99.90;;;;;;4895529;29;20049;-83
2022/12/09 00:18:23;;;;;;;14.02;9.13;;;1.80;99.90;;;;;;4897805;29;20051;-83
2022/12/09 00:20:48;;;;;;;13.15;9.25;;;1.80;99.90;;;;;;4898616;29;20040;-83
2022/12/09 00:23:14;;;;;;;14.32;9.60;;;1.80;99.90;;;;;;4895611;29;20052;-83
2022/12/09 00:25:40;;;;;;;13.23;9.48;;;1.80;99.90;;;;;;4896170;29;20092;-83
2022/12/09 00:28:05;;;;;;;15.07;9.40;;;1.80;99.90;;;;;;4898622;29;20392;-83
2022/12/09 00:30:31;;;;;;;14.02;8.77;;;1.80;99.90;;;;;;4896701;29;20048;-83
2022/12/09 00:32:57;;;;;;;16.35;10.00;;;1.70;99.90;;;;;;4898464;29;20052;-83
2022/12/09 00:35:22;;;;;;;11.70;8.70;;;1.70;99.90;;;;;;4896398;29;20057;-83
2022/12/09 00:37:48;;;;;;;13.55;9.52;;;1.80;99.90;;;;;;4895892;29;20048;-83
2022/12/09 00:40:14;;;;;;;12.85;9.02;;;1.70;99.90;;;;;;4896217;29;20048;-83
2022/12/09 00:42:40;;;;;;;12.25;9.20;;;1.70;99.90;;;;;;4896617;29;20472;-83
2022/12/09 00:45:07;;;;;;;14.60;8.77;;;1.70;99.90;;;;;;4896957;29;20180;-83
2022/12/09 00:47:33;;;;;;;14.10;9.25;;;1.70;99.90;;;;;;4897192;29;20374;-83
2022/12/09 00:49:59;;;;;;;14.55;9.05;;;1.70;99.90;;;;;;4895835;29;20051;-83
2022/12/09 00:52:24;;;;;;;13.32;9.32;;;1.70;99.90;;;;;;4896194;29;20044;-83
2022/12/09 00:54:50;;;;;;;13.57;9.20;;;1.70;99.90;;;;;;4897402;29;20065;-83
2022/12/09 00:57:15;;;;;;;13.30;9.32;;;1.70;99.90;;;;;;4896786;29;20083;-83
2022/12/09 00:59:41;;;;;;;14.15;9.07;;;1.70;99.90;;;;;;4896288;29;20493;-83
2022/12/09 01:02:07;;;;;;;15.00;9.60;;;1.70;99.90;;;;;;4896674;29;20051;-83
2022/12/09 01:04:32;;;;;;;12.85;9.13;;;1.70;99.90;;;;;;4897132;29;20040;-83
2022/12/09 01:06:58;;;;;;;13.10;9.13;;;1.70;99.90;;;;;;4898328;29;20519;-82
2022/12/09 01:09:24;;;;;;;15.07;9.40;;;1.70;99.90;;;;;;4897387;29;20048;-83
2022/12/09 01:11:49;;;;;;;14.07;9.98;;;1.70;99.90;;;;;;4895654;29;20084;-83
2022/12/09 01:14:15;;;;;;;14.32;9.00;;;1.70;99.90;;;;;;4897106;29;20124;-83
2022/12/09 01:16:41;;;;;;;15.38;9.52;;;1.70;99.90;;;;;;4896804;29;20485;-82
2022/12/09 01:19:09;;;;;;;14.35;9.30;;;1.70;99.90;;;;;;4896657;29;20048;-83
2022/12/09 01:21:35;;;;;;;13.38;9.32;;;1.70;99.90;;;;;;4896416;29;20104;-82
2022/12/09 01:24:04;;;;;;;14.32;9.13;;;1.70;99.90;;;;;;4896441;29;20041;-83
2022/12/09 01:26:30;;;;;;;14.30;9.00;;;1.70;99.90;;;;;;4894762;29;20123;-83
2022/12/09 01:28:56;;;;;;;14.50;9.20;;;1.70;99.90;;;;;;4897347;29;20124;-83
2022/12/09 01:31:23;;;;;;;12.95;9.30;;;1.70;99.90;;;;;;4895792;29;20049;-83
2022/12/09 01:33:49;;;;;;;13.80;9.77;;;1.70;99.90;;;;;;4896125;29;20088;-83
2022/12/09 01:36:26;;;;;;;14.27;9.77;;;1.60;99.90;;;;;;4897007;29;20539;-83
2022/12/09 01:38:52;;;;;;;15.10;9.40;;;1.70;99.90;;;;;;4896691;29;20451;-83
2022/12/09 01:41:19;;;;;;;16.67;9.90;;;1.60;99.90;;;;;;4896208;29;20401;-83
2022/12/09 01:43:45;;;;;;;13.85;9.35;;;1.70;99.90;;;;;;4898056;29;20049;-83
2022/12/09 01:46:10;;;;;;;13.45;9.88;;;1.70;99.90;;;;;;4896633;29;20044;-83
2022/12/09 01:48:45;;;;;;;13.98;9.73;;;1.70;99.90;;;;;;4899307;29;20064;-83
2022/12/09 01:51:18;;;;;;;13.52;9.73;;;1.70;99.90;;;;;;4890488;29;20044;-83
2022/12/09 01:53:46;;;;;;;14.27;9.77;;;1.70;99.90;;;;;;4900744;29;20040;-83
2022/12/09 01:56:20;;;;;;;14.13;9.60;;;1.70;99.90;;;;;;4900471;29;20577;-84
2022/12/09 01:58:48;;;;;;;12.93;9.18;;;1.70;99.90;;;;;;4900091;29;20048;-83
2022/12/09 02:01:15;;;;;;;13.93;9.60;;;1.70;99.90;;;;;;4900033;29;20048;-83
2022/12/09 02:03:40;;;;;;;14.73;9.93;;;1.70;99.90;;;;;;4900195;29;20075;-83
2022/12/09 02:06:06;;;;;;;14.32;9.65;;;1.70;99.90;;;;;;4899772;29;20052;-83
2022/12/09 02:08:32;;;;;;;14.50;9.55;;;1.70;99.90;;;;;;4898750;29;20068;-83
2022/12/09 02:11:16;;;;;;;13.50;9.30;;;1.70;99.90;;;;;;4899964;29;20047;-83
2022/12/09 02:13:54;;;;;;;14.05;9.57;;;1.70;99.90;;;;;;4900724;29;20055;-83
2022/12/09 02:16:23;;;;;;;15.45;9.52;;;1.70;99.90;;;;;;4899529;29;20060;-83
2022/12/09 02:19:15;;;;;;;13.13;9.90;;;1.60;99.90;;;;;;4899311;29;20055;-83
2022/12/09 02:21:54;;;;;;;16.15;9.95;;;1.70;99.90;;;;;;4898397;29;20057;-83
2022/12/09 02:24:29;;;;;;;14.95;9.10;;;1.70;99.90;;;;;;4900458;29;20029;-83
2022/12/09 02:27:19;;;;;;;14.25;9.60;;;1.60;99.90;;;;;;4899512;29;20135;-82
2022/12/09 02:29:59;;;;;;;12.93;9.32;;;1.60;99.90;;;;;;4899304;29;20044;-82
2022/12/09 02:32:27;;;;;;;15.63;10.10;;;1.60;99.90;;;;;;4883748;29;20036;-83
2022/12/09 02:35:04;;;;;;;15.73;9.32;;;1.60;99.90;;;;;;4900623;29;20061;-82
2022/12/09 02:38:04;;;;;;;16.33;9.70;;;1.60;99.90;;;;;;4898526;29;20045;-83
2022/12/09 02:40:32;;;;;;;18.17;9.60;;;1.60;99.90;;;;;;4899982;29;20100;-83
2022/12/09 02:43:00;;;;;;;14.73;9.85;;;1.60;99.90;;;;;;4898154;29;20076;-82
2022/12/09 02:45:28;;;;;;;13.25;9.27;;;1.60;99.90;;;;;;4885298;29;20436;-82
2022/12/09 02:47:55;;;;;;;15.50;10.30;;;1.60;99.90;;;;;;4898407;29;20493;-83
2022/12/09 02:50:25;;;;;;;15.50;9.60;;;1.60;99.90;;;;;;4899663;29;20056;-83
2022/12/09 02:52:53;;;;;;;15.60;9.98;;;1.60;99.90;;;;;;4898674;29;20404;-82
2022/12/09 02:55:21;;;;;;;13.63;9.48;;;1.60;99.90;;;;;;4899142;29;20052;-83
2022/12/09 02:57:51;;;;;;;16.25;9.93;;;1.60;99.90;;;;;;4898537;29;20131;-83
2022/12/09 03:00:17;;;;;;;15.90;9.75;;;1.60;99.90;;;;;;4897444;29;20053;-83
2022/12/09 03:02:48;;;;;;;14.15;9.73;;;1.60;99.90;;;;;;4900164;29;20051;-83
2022/12/09 03:05:19;;;;;;;13.57;9.75;;;1.60;99.90;;;;;;4897633;29;20049;-83
2022/12/09 03:07:47;;;;;;;14.00;10.10;;;1.60;99.90;;;;;;4899994;29;20555;-83
2022/12/09 03:10:22;;;;;;;14.95;10.07;;;1.60;99.90;;;;;;4897518;29;20048;-83
2022/12/09 03:12:55;;;;;;;15.45;10.35;;;1.60;99.90;;;;;;4892151;29;20052;-83
2022/12/09 03:15:25;;;;;;;16.77;10.23;;;1.60;99.90;;;;;;4896728;29;20429;-83
2022/12/09 03:17:52;;;;;;;17.55;10.32;;;1.60;99.90;;;;;;4897831;29;20068;-83
2022/12/09 03:20:25;;;;;;;16.20;9.82;;;1.60;99.90;;;;;;4897648;29;20052;-83
2022/12/09 03:22:55;;;;;;;14.18;10.00;;;1.60;99.90;;;;;;4899698;29;20044;-82
2022/12/09 03:25:30;;;;;;;15.65;9.98;;;1.60;99.90;;;;;;4898003;29;20044;-83
2022/12/09 03:28:02;;;;;;;14.48;9.05;;;1.60;99.90;;;;;;4898136;29;20045;-83
2022/12/09 03:30:36;;;;;;;16.50;10.17;;;1.60;99.90;;;;;;4898915;29;20052;-83
2022/12/09 03:33:03;;;;;;;20.17;10.32;;;1.60;99.90;;;;;;4898601;29;20080;-83
2022/12/09 03:35:33;;;;;;;15.35;9.50;;;1.60;99.90;;;;;;4897307;29;20061;-83
2022/12/09 03:38:02;;;;;;;15.63;10.40;;;1.60;99.90;;;;;;4898842;29;20135;-82
2022/12/09 03:40:29;;;;;;;15.55;10.30;;;1.60;99.90;;;;;;4894974;29;20048;-82
2022/12/09 03:43:04;;;;;;;14.75;10.15;;;1.50;99.90;;;;;;4898338;29;20048;-82
2022/12/09 03:45:31;;;;;;;18.67;10.73;;;1.50;99.90;;;;;;4896410;29;20041;-83
2022/12/09 03:47:57;;;;;;;15.93;10.68;;;1.50;99.90;;;;;;4898017;29;20393;-82
2022/12/09 03:50:25;;;;;;;15.30;9.73;;;1.50;99.90;;;;;;4899041;29;20044;-83
2022/12/09 03:53:09;;;;;;;16.08;9.75;;;1.50;99.90;;;;;;4898551;29;20128;-82
2022/12/09 03:55:55;;;;;;;15.48;9.63;;;1.50;99.90;;;;;;4897168;29;20060;-82
2022/12/09 03:58:20;;;;;;;17.13;9.75;;;1.40;99.90;;;;;;4898609;29;20092;-82
2022/12/09 04:00:47;;;;;;;19.08;10.00;;;1.40;99.90;;;;;;4896644;29;20484;-82
2022/12/09 04:03:13;;;;;;;15.82;9.70;;;1.40;99.90;;;;;;4897398;29;20056;-82
2022/12/09 04:05:39;;;;;;;14.57;9.00;;;1.40;99.90;;;;;;4898823;29;20049;-82
2022/12/09 04:08:05;;;;;;;15.50;10.13;;;1.40;99.90;;;;;;4896646;29;20075;-82
2022/12/09 04:10:30;;;;;;;15.98;10.20;;;1.30;99.90;;;;;;4896888;29;20128;-82
2022/12/09 04:12:56;;;;;;;15.57;10.23;;;1.30;99.90;;;;;;4898603;29;20052;-82
2022/12/09 04:15:22;;;;;;;15.13;10.30;;;1.30;99.90;;;;;;4896969;29;20434;-82
2022/12/09 04:17:47;;;;;;;18.95;9.60;;;1.30;99.90;;;;;;4897400;29;20045;-82
2022/12/09 04:20:13;;;;;;;16.20;9.65;;;1.30;99.90;;;;;;4898606;29;20101;-82
2022/12/09 04:22:39;;;;;;;14.30;9.60;;;1.30;99.90;;;;;;4896206;29;20056;-82
2022/12/09 04:25:05;;;;;;;15.13;10.48;;;1.20;99.90;;;;;;4897936;29;20051;-82
2022/12/09 04:27:30;;;;;;;15.52;10.10;;;1.20;99.90;;;;;;4897243;29;20056;-82
2022/12/09 04:29:56;;;;;;;14.50;10.15;;;1.20;99.90;;;;;;4897498;29;20048;-82
2022/12/09 04:32:21;;;;;;;15.65;9.98;;;1.20;99.90;;;;;;4897241;29;20036;-82
2022/12/09 04:34:47;;;;;;;17.95;10.20;;;1.20;99.90;;;;;;4899176;29;20107;-82
2022/12/09 04:37:14;;;;;;;15.35;9.93;;;1.10;99.90;;;;;;4895718;29;20102;-82
2022/12/09 04:39:40;;;;;;;17.60;10.27;;;1.10;99.90;;;;;;4897677;29;20059;-82
2022/12/09 04:42:06;;;;;;;16.70;10.75;;;1.10;99.90;;;;;;4895826;29;20044;-82
2022/12/09 04:44:32;;;;;;;14.57;10.20;;;1.00;99.90;;;;;;4898248;29;20044;-82
2022/12/09 04:46:58;;;;;;;15.77;10.73;;;1.00;99.90;;;;;;4897338;29;20044;-82
2022/12/09 04:49:23;;;;;;;15.95;10.15;;;1.00;99.90;;;;;;4895807;29;20040;-82
2022/12/09 04:51:49;;;;;;;17.65;9.95;;;1.00;99.90;;;;;;4896651;29;20041;-82
2022/12/09 04:54:14;;;;;;;15.88;10.43;;;1.00;99.90;;;;;;4895969;29;20048;-82
2022/12/09 04:56:41;;;;;;;16.90;10.30;;;1.00;99.90;;;;;;4895547;29;20048;-82
2022/12/09 04:59:07;;;;;;;17.25;11.02;;;1.00;99.90;;;;;;4896817;29;20501;-82
2022/12/09 05:01:33;;;;;;;14.30;9.98;;;0.90;99.90;;;;;;4897634;29;20056;-81
2022/12/09 05:03:59;;;;;;;17.63;11.05;;;0.90;99.90;;;;;;4896220;29;20052;-81
2022/12/09 05:06:25;;;;;;;15.15;9.75;;;0.90;99.90;;;;;;4897234;29;20480;-82
2022/12/09 05:08:51;;;;;;;14.80;10.27;;;0.90;99.90;;;;;;4897013;29;20085;-82
2022/12/09 05:11:18;;;;;;;15.60;9.80;;;0.90;99.90;;;;;;4897635;29;20579;-82
2022/12/09 05:13:44;;;;;;;14.65;9.82;;;0.80;99.90;;;;;;4896276;29;20128;-81
2022/12/09 05:16:12;;;;;;;15.05;9.88;;;0.80;99.90;;;;;;4896536;29;20587;-81
2022/12/09 05:18:38;;;;;;;14.98;9.90;;;0.80;99.90;;;;;;4895530;29;20044;-81
2022/12/09 05:21:09;;;;;;;16.67;10.30;;;0.80;99.90;;;;;;4896902;29;20052;-81
2022/12/09 05:23:35;;;;;;;14.90;10.60;;;0.80;99.90;;;;;;4899868;29;20040;-81
2022/12/09 05:26:04;;;;;;;15.07;10.07;;;0.70;99.90;;;;;;4899678;29;20036;-82
2022/12/09 05:28:30;;;;;;;15.15;10.55;;;0.70;99.90;;;;;;4899329;29;20052;-81
2022/12/09 05:31:04;;;;;;;14.88;10.20;;;0.70;99.90;;;;;;4899755;29;20038;-82
2022/12/09 05:33:30;;;;;;;16.17;10.52;;;0.70;99.90;;;;;;4899452;29;20048;-81
2022/12/09 05:35:56;;;;;;;14.40;10.10;;;0.70;99.90;;;;;;4900352;29;20048;-81
2022/12/09 05:38:24;;;;;;;15.52;10.55;;;0.70;99.90;;;;;;4898831;29;20139;-81
2022/12/09 05:40:50;;;;;;;14.93;10.25;;;0.60;99.90;;;;;;4900538;29;20044;-81
2022/12/09 05:43:16;;;;;;;15.77;10.55;;;0.60;99.90;;;;;;4899428;29;20396;-81
2022/12/09 05:45:42;;;;;;;15.75;10.43;;;0.60;99.90;;;;;;4900965;29;20075;-81
2022/12/09 05:48:08;;;;;;;16.27;10.85;;;0.60;99.90;;;;;;4899164;29;20036;-81
2022/12/09 05:50:34;;;;;;;15.40;10.93;;;0.50;99.90;;;;;;4900812;29;20079;-81
2022/12/09 05:52:59;;;;;;;17.30;10.68;;;0.60;99.90;;;;;;4900553;29;20119;-81
2022/12/09 05:55:25;;;;;;;18.65;11.27;;;0.50;99.90;;;;;;4899899;29;20515;-81
2022/12/09 05:57:51;;;;;;;15.25;10.60;;;0.50;99.90;;;;;;4899379;29;20140;-81
2022/12/09 06:00:16;;;;;;;16.73;10.82;;;0.40;99.90;;;;;;4898972;29;20493;-81
2022/12/09 06:02:42;;;;;;;15.95;10.15;;;0.40;99.90;;;;;;4899581;29;20048;-81
2022/12/09 06:05:08;;;;;;;15.95;10.88;;;0.40;99.90;;;;;;4898821;29;20055;-81
2022/12/09 06:07:34;;;;;;;16.05;10.98;;;0.40;99.90;;;;;;4898525;29;20405;-81
2022/12/09 06:10:00;;;;;;;16.50;11.07;;;0.40;99.90;;;;;;4900778;29;20053;-81
2022/12/09 06:12:27;;;;;;;18.08;11.50;;;0.30;99.90;;;;;;4900910;29;20420;-81
2022/12/09 06:14:52;;;;;;;16.80;11.30;;;0.30;99.90;;;;;;4898483;29;20048;-81
2022/12/09 06:17:18;;;;;;;18.05;11.43;;;0.30;99.90;;;;;;4899420;29;20048;-81
2022/12/09 06:19:44;;;;;;;18.35;11.35;;;0.30;99.90;;;;;;4900155;29;20072;-81
2022/12/09 06:22:09;;;;;;;15.27;10.90;;;0.30;99.90;;;;;;4898872;29;20044;-83
2022/12/09 06:24:35;;;;;;;16.08;10.85;;;0.30;99.90;;;;;;4900029;29;20045;-83
2022/12/09 06:27:01;;;;;;;18.38;11.43;;;0.20;99.90;;;;;;4899883;29;20048;-83
2022/12/09 06:29:26;;;;;;;17.98;11.07;;;0.20;99.90;;;;;;4898490;29;20144;-83
2022/12/09 06:31:52;;;;;;;15.48;10.73;;;0.20;99.90;;;;;;4900002;29;20040;-83
2022/12/09 06:34:18;;;;;;;18.27;11.82;;;0.20;99.90;;;;;;4898077;29;20123;-83
2022/12/09 06:36:44;;;;;;;17.95;11.82;;;0.20;99.90;;;;;;4899348;29;20052;-83
2022/12/09 06:39:10;;;;;;;17.23;11.65;;;0.20;99.90;;;;;;4900520;29;20060;-83
2022/12/09 06:41:36;;;;;;;17.15;11.85;;;0.10;99.90;;;;;;4898272;29;20048;-83
2022/12/09 06:44:02;;;;;;;18.00;11.25;;;0.10;99.90;;;;;;4898944;29;20048;-83
2022/12/09 06:46:27;;;;;;;17.77;11.85;;;0.10;99.90;;;;;;4899988;29;20052;-82
2022/12/09 06:48:54;;;;;;;18.65;11.30;;;0.10;99.90;;;;;;4898416;29;20037;-83
2022/12/09 06:51:21;;;;;;;18.55;11.23;;;0.10;99.90;;;;;;4899463;29;20048;-83
2022/12/09 06:53:47;;;;;;;16.52;10.85;;;0.00;99.90;;;;;;4898345;29;20056;-83
2022/12/09 06:56:13;;;;;;;16.42;11.15;;;0.00;99.90;;;;;;4898810;29;20045;-83
2022/12/09 06:58:41;;;;;;;19.25;12.13;;;0.00;99.90;;;;;;4898625;29;20057;-83
2022/12/09 07:01:16;;;;;;;21.88;11.90;;;0.00;99.90;;;;;;4898885;29;20049;-83
2022/12/09 07:03:44;;;;;;;17.67;11.63;;;0.00;99.90;;;;;;4898307;29;20043;-83
2022/12/09 07:06:37;;;;;;;16.80;10.90;;;0.00;99.90;;;;;;4898868;29;20092;-83
2022/12/09 07:09:08;;;;;;;16.60;11.20;;;0.00;99.90;;;;;;4895263;29;20052;-83
2022/12/09 07:11:34;;;;;;;17.27;11.40;;;0.00;99.90;;;;;;4898347;29;20072;-83
2022/12/09 07:14:00;;;;;;;20.25;12.68;;;0.00;99.90;;;;;;4898823;29;20044;-83
2022/12/09 07:16:27;;;;;;;18.40;11.48;;;-0.10;99.90;;;;;;4900859;29;20048;-83
2022/12/09 07:18:53;;;;;;;20.00;12.40;;;-0.10;99.90;;;;;;4899362;29;20041;-83
2022/12/09 07:21:20;;;;;;;18.75;11.85;;;-0.10;99.90;;;;;;4897752;29;20151;-82
2022/12/09 07:23:46;;;;;;;18.65;12.48;;;-0.10;99.90;;;;;;4898832;29;20077;-82
2022/12/09 07:26:13;;;;;;;19.08;11.77;;;-0.10;99.90;;;;;;4898306;29;20044;-82
2022/12/09 07:28:41;;;;;;;20.17;12.88;;;-0.10;99.90;;;;;;4899585;29;20049;-82
2022/12/09 07:31:15;;;;;;;20.60;13.27;;;-0.10;99.90;;;;;;4897876;29;20492;-83
2022/12/09 07:33:41;;;;;;;19.33;12.80;;;-0.10;99.90;;;;;;4898751;29;20055;-86
2022/12/09 07:36:07;;;;;;;20.90;13.57;;;-0.20;99.90;;;;;;4898431;29;20057;-85
2022/12/09 07:38:32;;;;;;;20.33;13.38;;;-0.20;99.90;;;;;;4898691;29;20048;-87
2022/12/09 07:41:04;;;;;;;19.70;13.27;;;-0.20;99.90;;;;;;4898853;29;20051;-87
2022/12/09 07:43:33;;;;;;;19.05;12.93;;;-0.20;99.90;;;;;;4898617;29;20500;-86
2022/12/09 07:45:58;;;;;;;20.30;13.63;;;-0.20;99.90;;;;;;4897276;29;20120;-81
2022/12/09 07:48:24;;;;;;;21.77;13.82;;;-0.20;99.90;;;;;;4894866;29;20136;-82
2022/12/09 07:50:50;;;;;;;20.40;14.00;;;-0.20;99.90;;;;;;4893450;29;20043;-81
2022/12/09 07:53:15;;;;;;;20.35;13.95;;;-0.20;99.90;;;;;;4897085;29;20127;-83
2022/12/09 07:55:41;;;;;;;22.08;14.60;;;-0.20;99.90;;;;;;4897995;29;20037;-83
2022/12/09 07:58:06;;;;;;;20.52;13.65;;;-0.30;99.90;;;;;;4895966;29;20046;-83
2022/12/09 08:00:32;;;;;;;20.52;13.63;;;-0.30;99.90;;;;;;4894141;29;20060;-83
2022/12/09 08:02:57;;;;;;;21.10;13.57;;;-0.30;99.90;;;;;;4899279;29;20040;-83
2022/12/09 08:05:23;;;;;;;20.67;13.38;;;-0.30;99.90;;;;;;4897975;29;20131;-83
2022/12/09 08:07:49;;;;;;;20.23;13.40;;;-0.30;99.90;;;;;;4897344;29;20420;-83
2022/12/09 08:10:14;;;;;;;21.10;13.30;;;-0.30;99.90;;;;;;4897533;29;20036;-83
2022/12/09 08:12:40;;;;;;;21.63;14.20;;;-0.30;99.90;;;;;;4898127;29;20044;-83
2022/12/09 08:15:06;;;;;;;21.05;13.95;;;-0.40;99.90;;;;;;4898658;29;20074;-83
2022/12/09 08:17:31;;;;;;;21.00;13.63;;;-0.40;99.90;;;;;;4897744;29;20045;-83
2022/12/09 08:19:57;;;;;;;22.95;14.60;;;-0.40;99.90;;;;;;4897347;29;20052;-83
2022/12/09 08:22:23;;;;;;;22.35;13.88;;;-0.40;99.90;;;;;;4897180;29;20052;-83
2022/12/09 08:24:48;;;;;;;22.48;13.90;;;-0.40;99.90;;;;;;4903426;29;20095;-83
2022/12/09 08:27:14;;;;;;;22.52;13.30;;;-0.40;99.90;;;;;;4905818;29;20040;-84
2022/12/09 08:29:40;;;;;;;22.55;14.18;;;-0.40;99.90;;;;;;4897921;29;20382;-84
2022/12/09 08:32:05;;;;;;;23.90;14.80;;;-0.50;99.90;;;;;;4897936;29;20512;-83
2022/12/09 08:34:31;;;;;;;47.78;20.40;;;-0.40;99.90;;;;;;4895861;29;20045;-84
2022/12/09 08:36:57;;;;;;;37.03;18.27;;;-0.40;99.90;;;;;;4896950;29;20613;-84
2022/12/09 08:39:22;;;;;;;28.63;16.00;;;-0.40;99.90;;;;;;4897485;29;20055;-84
2022/12/09 08:41:48;;;;;;;23.88;15.43;;;-0.30;99.90;;;;;;4896606;29;20049;-84
2022/12/09 08:44:16;;;;;;;24.15;15.15;;;-0.30;99.90;;;;;;4898123;29;20048;-84
2022/12/09 08:46:45;;;;;;;25.67;15.27;;;-0.30;99.90;;;;;;4897021;29;20055;-84
2022/12/09 08:49:11;;;;;;;23.58;15.23;;;-0.30;99.90;;;;;;4895712;29;20404;-84
2022/12/09 08:51:38;;;;;;;59.85;17.95;;;-0.30;99.90;;;;;;4897308;29;20056;-84
2022/12/09 08:54:04;;;;;;;27.10;15.35;;;-0.30;99.90;;;;;;4897694;29;20062;-83
2022/12/09 08:56:30;;;;;;;27.20;17.30;;;-0.20;99.90;;;;;;4895068;29;20041;-82
2022/12/09 08:58:56;;;;;;;90.35;20.05;;;-0.20;99.90;;;;;;4895878;29;20416;-82
2022/12/09 09:01:24;;;;;;;28.63;17.20;;;-0.20;99.90;;;;;;4897786;29;20048;-83
2022/12/09 09:03:50;;;;;;;25.40;15.82;;;-0.10;99.90;;;;;;4890897;29;20049;-82
2022/12/09 09:06:18;;;;;;;26.42;16.30;;;-0.10;99.90;;;;;;4891257;29;20120;-83
2022/12/09 09:08:44;;;;;;;23.75;15.15;;;-0.10;99.90;;;;;;4895333;29;20041;-83
2022/12/09 09:11:18;;;;;;;28.92;16.30;;;-0.10;99.90;;;;;;4896333;29;20151;-83
2022/12/09 09:13:46;;;;;;;37.10;19.15;;;0.00;99.90;;;;;;4897749;29;20477;-83
2022/12/09 09:16:16;;;;;;;27.05;16.50;;;0.00;99.90;;;;;;4897470;29;20060;-83
2022/12/09 09:18:42;;;;;;;27.13;16.20;;;0.00;99.90;;;;;;4897274;29;20498;-83
2022/12/09 09:21:10;;;;;;;27.58;17.05;;;0.00;99.90;;;;;;4893906;29;20167;-82
2022/12/09 09:23:36;;;;;;;31.00;19.45;;;0.00;99.90;;;;;;4897451;29;20044;-83
2022/12/09 09:26:28;;;;;;;31.08;17.80;;;0.10;99.90;;;;;;4895632;29;20045;-83
2022/12/09 09:28:55;;;;;;;25.60;16.63;;;0.10;99.90;;;;;;4896195;29;20536;-84
2022/12/09 09:31:23;;;;;;;27.77;16.95;;;0.20;99.90;;;;;;4895752;29;20139;-83
2022/12/09 09:33:48;;;;;;;31.83;18.70;;;0.20;99.90;;;;;;4895851;29;20081;-85
2022/12/09 09:36:22;;;;;;;43.55;22.58;;;0.20;99.90;;;;;;4896210;29;20052;-84
2022/12/09 09:38:49;;;;;;;26.92;16.95;;;0.30;99.90;;;;;;4897591;29;20053;-83
2022/12/09 09:41:41;;;;;;;27.23;16.58;;;0.30;99.90;;;;;;4896587;29;20397;-83
2022/12/09 09:44:32;;;;;;;47.38;22.48;;;0.30;99.90;;;;;;4896714;29;20059;-84
2022/12/09 09:46:59;;;;;;;30.30;18.95;;;0.40;99.90;;;;;;4897570;29;20095;-83
2022/12/09 09:49:40;;;;;;;28.42;18.02;;;0.40;99.90;;;;;;4897873;29;20048;-83
2022/12/09 09:52:17;;;;;;;30.98;19.13;;;0.40;99.90;;;;;;4896068;29;20080;-84
2022/12/09 09:54:42;;;;;;;26.20;16.38;;;0.40;99.90;;;;;;4898147;29;20516;-83
2022/12/09 09:57:13;;;;;;;35.42;17.10;;;0.50;99.90;;;;;;4896667;29;20053;-84
2022/12/09 09:59:56;;;;;;;27.13;17.00;;;0.50;99.90;;;;;;4897367;29;20049;-84
2022/12/09 10:02:54;;;;;;;27.88;17.92;;;0.50;99.90;;;;;;4896626;29;20096;-84
2022/12/09 10:05:31;;;;;;;34.00;16.85;;;0.50;99.90;;;;;;4896541;29;20053;-84
2022/12/09 10:08:40;;;;;;;52.95;21.98;;;0.60;99.90;;;;;;4898800;29;20044;-84
2022/12/09 10:11:37;;;;;;;38.95;22.20;;;0.60;99.90;;;;;;4900982;29;20084;-84
2022/12/09 10:14:24;;;;;;;27.63;16.92;;;0.60;99.90;;;;;;4900272;29;20517;-84
2022/12/09 10:17:11;;;;;;;33.10;18.45;;;0.70;99.90;;;;;;4901783;29;20052;-84
2022/12/09 10:19:43;;;;;;;48.08;21.30;;;0.70;99.90;;;;;;4899952;29;20531;-84
2022/12/09 10:22:16;;;;;;;29.42;18.77;;;0.70;99.90;;;;;;4900705;29;20171;-84
2022/12/09 10:24:51;;;;;;;25.98;16.73;;;0.70;99.90;;;;;;4900602;29;20077;-84
2022/12/09 10:27:36;;;;;;;26.17;16.90;;;0.70;99.90;;;;;;4900254;29;20072;-84
2022/12/09 10:30:12;;;;;;;27.52;17.38;;;0.70;99.90;;;;;;4900651;29;20528;-85
2022/12/09 10:32:39;;;;;;;27.20;17.08;;;0.70;99.90;;;;;;4900666;29;20495;-85
2022/12/09 10:35:16;;;;;;;35.40;19.55;;;0.80;99.90;;;;;;4899822;29;20048;-85
2022/12/09 10:37:41;;;;;;;29.17;18.15;;;0.80;99.90;;;;;;4900569;29;20052;-84
2022/12/09 10:40:10;;;;;;;26.70;17.20;;;0.80;99.90;;;;;;4900679;29;20129;-85
2022/12/09 10:45:34;;;;;;;29.42;18.05;;;0.90;99.90;;;;;;4866345;29;20080;-85
2022/12/09 10:47:59;;;;;;;33.63;18.85;;;0.90;99.90;;;;;;4899758;29;20047;-85
2022/12/09 10:50:31;;;;;;;28.75;17.92;;;0.90;99.90;;;;;;4901919;29;20052;-85
2022/12/09 10:53:10;;;;;;;25.95;16.85;;;0.90;99.90;;;;;;4900466;29;20048;-85
2022/12/09 10:55:39;;;;;;;28.20;18.27;;;1.00;99.90;;;;;;4899752;29;20090;-85
2022/12/09 10:58:17;;;;;;;34.15;19.10;;;1.00;99.90;;;;;;4900770;29;20041;-85
2022/12/09 11:01:02;;;;;;;26.50;16.73;;;1.10;99.90;;;;;;4902117;29;20041;-85
2022/12/09 11:03:36;;;;;;;32.53;19.80;;;1.10;99.90;;;;;;4899656;29;20453;-85
2022/12/09 11:06:28;;;;;;;31.48;19.52;;;1.10;99.90;;;;;;4901089;29;20812;-85
2022/12/09 11:08:57;;;;;;;46.30;22.35;;;1.10;99.90;;;;;;4900234;29;20139;-85
2022/12/09 11:11:47;;;;;;;37.05;21.90;;;1.10;99.90;;;;;;4900500;29;20461;-85
2022/12/09 11:14:34;;;;;;;37.97;21.80;;;1.10;99.90;;;;;;4899929;29;20139;-85
2022/12/09 11:17:23;;;;;;;38.05;19.95;;;1.20;99.90;;;;;;4898890;29;20079;-88
2022/12/09 11:19:52;;;;;;;32.50;19.45;;;1.20;99.90;;;;;;4891465;29;20044;-87
2022/12/09 11:22:37;;;;;;;29.02;18.42;;;1.20;99.90;;;;;;4897479;29;20497;-85
2022/12/09 11:25:23;;;;;;;39.08;21.50;;;1.20;99.90;;;;;;4899782;29;20131;-86
2022/12/09 11:28:02;;;;;;;40.75;22.25;;;1.20;99.90;;;;;;4902343;29;20076;-87
2022/12/09 11:30:33;;;;;;;27.85;18.00;;;1.20;99.90;;;;;;4900317;29;20044;-86
2022/12/09 11:33:19;;;;;;;30.70;18.60;;;1.20;99.90;;;;;;4900570;29;20156;-86
2022/12/09 11:35:45;;;;;;;35.00;20.63;;;1.30;99.90;;;;;;4902936;29;20044;-86
2022/12/09 11:38:29;;;;;;;53.63;21.98;;;1.20;99.90;;;;;;4908079;29;20409;-85
2022/12/09 11:41:04;;;;;;;30.15;17.98;;;1.30;99.90;;;;;;4898848;29;20048;-86
2022/12/09 11:43:48;;;;;;;34.25;19.63;;;1.30;99.90;;;;;;4899510;29;20071;-87
2022/12/09 11:46:13;;;;;;;31.33;19.40;;;1.30;99.90;;;;;;4901479;29;20067;-88
2022/12/09 11:48:47;;;;;;;34.28;20.73;;;1.30;99.90;;;;;;4897812;29;20116;-85
2022/12/09 11:51:35;;;;;;;29.90;18.60;;;1.30;99.90;;;;;;4893372;29;20165;-85
2022/12/09 11:54:15;;;;;;;44.05;24.70;;;1.30;99.90;;;;;;4899306;29;20048;-86
2022/12/09 11:56:42;;;;;;;31.40;19.73;;;1.30;99.90;;;;;;4899382;29;20511;-89
2022/12/09 11:59:16;;;;;;;45.65;25.58;;;1.40;99.90;;;;;;4896367;29;20044;-88
2022/12/09 12:02:17;;;;;;;43.47;25.52;;;1.40;99.90;;;;;;4898218;29;20055;-88
2022/12/09 12:04:49;;;;;;;33.90;19.60;;;1.40;99.90;;;;;;4897359;29;20067;-88
2022/12/09 12:07:40;;;;;;;32.30;19.60;;;1.40;99.90;;;;;;4899810;29;20052;-88
2022/12/09 12:10:16;;;;;;;31.10;18.65;;;1.40;99.90;;;;;;4855217;29;20068;-88
2022/12/09 12:13:26;;;;;;;32.90;20.63;;;1.50;99.90;;;;;;4895111;29;20138;-89
2022/12/09 12:16:30;;;;;;;35.63;20.98;;;1.40;99.90;;;;;;4855836;29;20049;-88
2022/12/09 12:19:08;;;;;;;35.67;21.27;;;1.50;99.90;;;;;;4895268;29;20083;-89
2022/12/09 12:21:40;;;;;;;31.77;19.85;;;1.50;99.90;;;;;;4896791;29;20132;-86
2022/12/09 12:24:43;;;;;;;32.25;19.88;;;1.50;99.90;;;;;;4897558;29;20104;-88
2022/12/09 12:27:18;;;;;;;31.95;19.20;;;1.50;99.90;;;;;;4895508;29;20049;-89
2022/12/09 12:30:05;;;;;;;34.72;21.27;;;1.50;99.90;;;;;;4896107;29;20101;-89
2022/12/09 12:32:59;;;;;;;34.35;20.00;;;1.60;99.90;;;;;;4893715;29;20483;-89
2022/12/09 12:35:46;;;;;;;29.58;19.23;;;1.60;99.90;;;;;;4897139;29;20048;-89
2022/12/09 12:38:30;;;;;;;33.47;20.23;;;1.60;99.90;;;;;;4897234;29;20084;-90
2022/12/09 12:41:35;;;;;;;34.20;20.88;;;1.60;99.90;;;;;;4894186;29;20496;-94
2022/12/09 12:47:32;;;;;;;32.33;20.13;;;1.60;99.90;;;;;;4894378;29;20409;-89
2022/12/09 12:50:04;;;;;;;30.83;18.70;;;1.70;99.90;;;;;;4897361;29;20135;-90
2022/12/09 12:52:59;;;;;;;29.70;19.05;;;1.70;99.90;;;;;;4897129;29;20056;-90
2022/12/09 12:55:48;;;;;;;31.33;19.73;;;1.70;99.90;;;;;;4897776;29;20128;-91
2022/12/09 12:58:44;;;;;;;31.88;19.85;;;1.70;99.90;;;;;;4896673;29;20052;-89
2022/12/09 13:01:33;;;;;;;31.25;20.17;;;1.70;99.90;;;;;;4895970;29;20426;-88
2022/12/09 13:04:19;;;;;;;32.05;19.33;;;1.70;99.90;;;;;;4878618;29;20041;-88